Terminal Aerodrome Forecast
Issued by NWS

Home | Current Version | Previous Version | Text Only | Print | Product List | Glossary On
Versions: 1 2 3 4 5 6 7 8 9 10 11 12 13 14 15 16 17 18 19 20 21 22 23
000
FTUS41 KBTV 230535
TAFSLK
TAF
KSLK 230535Z 2306/2406 07007KT P6SM OVC005
      TEMPO 2306/2310 3SM BR OVC003
     FM231200 10008KT P6SM OVC015
     FM231600 10010G20KT P6SM OVC025
     FM240000 09010G20KT P6SM VCSH OVC025
     FM240300 09010G20KT 3SM -SNPL BR OVC015=

USA.gov is the U.S. government's official web portal to all federal, state and local government web resources and services.